sensor_id;sensor_type;location;lat;lon;timestamp;temperature;humidity
7016;DHT22;3548;48.402;9.990;2022-09-09T00:02:19;13.00;99.90
7016;DHT22;3548;48.402;9.990;2022-09-09T00:05:08;13.00;99.90
7016;DHT22;3548;48.402;9.990;2022-09-09T00:07:45;13.00;99.90
7016;DHT22;3548;48.402;9.990;2022-09-09T00:10:36;13.00;99.90
7016;DHT22;3548;48.402;9.990;2022-09-09T00:15:57;13.00;99.90
7016;DHT22;3548;48.402;9.990;2022-09-09T00:18:30;13.00;99.90
7016;DHT22;3548;48.402;9.990;2022-09-09T00:21:11;13.10;99.90
7016;DHT22;3548;48.402;9.990;2022-09-09T00:23:40;13.00;99.90
7016;DHT22;3548;48.402;9.990;2022-09-09T00:26:30;13.00;99.90
7016;DHT22;3548;48.402;9.990;2022-09-09T00:31:37;13.00;99.90
7016;DHT22;3548;48.402;9.990;2022-09-09T00:34:19;13.00;99.90
7016;DHT22;3548;48.402;9.990;2022-09-09T00:36:48;13.00;99.90
7016;DHT22;3548;48.402;9.990;2022-09-09T00:39:34;13.00;99.90
7016;DHT22;3548;48.402;9.990;2022-09-09T00:42:18;13.00;99.90
7016;DHT22;3548;48.402;9.990;2022-09-09T00:47:53;13.00;99.90
7016;DHT22;3548;48.402;9.990;2022-09-09T00:50:38;13.00;99.90
7016;DHT22;3548;48.402;9.990;2022-09-09T00:58:35;12.90;99.90
7016;DHT22;3548;48.402;9.990;2022-09-09T01:01:11;12.70;99.90
7016;DHT22;3548;48.402;9.990;2022-09-09T01:03:49;12.80;99.90
7016;DHT22;3548;48.402;9.990;2022-09-09T01:06:33;12.80;99.90
7016;DHT22;3548;48.402;9.990;2022-09-09T01:12:16;12.80;99.90
7016;DHT22;3548;48.402;9.990;2022-09-09T01:14:48;12.80;99.90
7016;DHT22;3548;48.402;9.990;2022-09-09T01:17:23;12.70;99.90
7016;DHT22;3548;48.402;9.990;2022-09-09T01:20:46;12.50;99.90
7016;DHT22;3548;48.402;9.990;2022-09-09T01:23:17;12.40;99.90
7016;DHT22;3548;48.402;9.990;2022-09-09T01:26:04;12.30;99.90
7016;DHT22;3548;48.402;9.990;2022-09-09T01:28:34;12.20;99.90
7016;DHT22;3548;48.402;9.990;2022-09-09T01:31:01;12.20;99.90
7016;DHT22;3548;48.402;9.990;2022-09-09T01:33:27;12.20;99.90
7016;DHT22;3548;48.402;9.990;2022-09-09T01:36:00;12.20;99.90
7016;DHT22;3548;48.402;9.990;2022-09-09T01:38:29;12.10;99.90
7016;DHT22;3548;48.402;9.990;2022-09-09T01:40:56;12.10;99.90
7016;DHT22;3548;48.402;9.990;2022-09-09T01:43:24;12.20;99.90
7016;DHT22;3548;48.402;9.990;2022-09-09T01:45:53;12.20;99.90
7016;DHT22;3548;48.402;9.990;2022-09-09T01:48:21;12.20;99.90
7016;DHT22;3548;48.402;9.990;2022-09-09T01:50:49;12.20;99.90
7016;DHT22;3548;48.402;9.990;2022-09-09T01:53:16;12.20;99.90
7016;DHT22;3548;48.402;9.990;2022-09-09T02:03:52;12.20;99.90
7016;DHT22;3548;48.402;9.990;2022-09-09T02:06:31;12.20;99.90
7016;DHT22;3548;48.402;9.990;2022-09-09T02:09:02;12.20;99.90
7016;DHT22;3548;48.402;9.990;2022-09-09T02:11:29;12.10;99.90
7016;DHT22;3548;48.402;9.990;2022-09-09T02:14:00;12.10;99.90
7016;DHT22;3548;48.402;9.990;2022-09-09T02:16:37;12.10;99.90
7016;DHT22;3548;48.402;9.990;2022-09-09T02:19:29;12.10;99.90
7016;DHT22;3548;48.402;9.990;2022-09-09T02:21:59;12.00;99.90
7016;DHT22;3548;48.402;9.990;2022-09-09T02:24:26;12.00;99.90
7016;DHT22;3548;48.402;9.990;2022-09-09T02:26:54;12.00;99.90
7016;DHT22;3548;48.402;9.990;2022-09-09T02:29:31;12.00;99.90
7016;DHT22;3548;48.402;9.990;2022-09-09T02:32:01;12.00;99.90
7016;DHT22;3548;48.402;9.990;2022-09-09T02:34:30;12.00;99.90
7016;DHT22;3548;48.402;9.990;2022-09-09T02:36:57;12.00;99.90
7016;DHT22;3548;48.402;9.990;2022-09-09T02:39:25;12.00;99.90
7016;DHT22;3548;48.402;9.990;2022-09-09T02:41:50;12.00;99.90
7016;DHT22;3548;48.402;9.990;2022-09-09T02:44:18;11.90;99.90
7016;DHT22;3548;48.402;9.990;2022-09-09T02:52:23;11.70;99.90
7016;DHT22;3548;48.402;9.990;2022-09-09T02:54:55;11.70;99.90
7016;DHT22;3548;48.402;9.990;2022-09-09T02:57:27;11.70;99.90
7016;DHT22;3548;48.402;9.990;2022-09-09T02:59:53;11.70;99.90
7016;DHT22;3548;48.402;9.990;2022-09-09T03:02:20;11.60;99.90
7016;DHT22;3548;48.402;9.990;2022-09-09T03:04:45;11.70;99.90
7016;DHT22;3548;48.402;9.990;2022-09-09T03:07:16;11.70;99.90
7016;DHT22;3548;48.402;9.990;2022-09-09T03:09:42;11.80;99.90
7016;DHT22;3548;48.402;9.990;2022-09-09T03:12:08;11.80;99.90
7016;DHT22;3548;48.402;9.990;2022-09-09T03:14:33;11.90;99.90
7016;DHT22;3548;48.402;9.990;2022-09-09T03:16:59;11.90;99.90
7016;DHT22;3548;48.402;9.990;2022-09-09T03:19:26;11.90;99.90
7016;DHT22;3548;48.402;9.990;2022-09-09T03:21:53;11.90;99.90
7016;DHT22;3548;48.402;9.990;2022-09-09T03:24:18;12.00;99.90
7016;DHT22;3548;48.402;9.990;2022-09-09T03:26:44;12.00;99.90
7016;DHT22;3548;48.402;9.990;2022-09-09T03:29:14;12.00;99.90
7016;DHT22;3548;48.402;9.990;2022-09-09T03:31:40;12.00;99.90
7016;DHT22;3548;48.402;9.990;2022-09-09T03:34:06;12.20;99.90
7016;DHT22;3548;48.402;9.990;2022-09-09T03:36:32;12.10;99.90
7016;DHT22;3548;48.402;9.990;2022-09-09T03:38:58;12.20;99.90
7016;DHT22;3548;48.402;9.990;2022-09-09T03:41:24;12.20;99.90
7016;DHT22;3548;48.402;9.990;2022-09-09T03:43:50;12.20;99.90
7016;DHT22;3548;48.402;9.990;2022-09-09T03:46:17;12.30;99.90
7016;DHT22;3548;48.402;9.990;2022-09-09T03:48:43;12.30;99.90
7016;DHT22;3548;48.402;9.990;2022-09-09T03:51:09;12.40;99.90
7016;DHT22;3548;48.402;9.990;2022-09-09T03:53:34;12.50;99.90
7016;DHT22;3548;48.402;9.990;2022-09-09T03:56:01;12.50;99.90
7016;DHT22;3548;48.402;9.990;2022-09-09T03:58:27;12.50;99.90
7016;DHT22;3548;48.402;9.990;2022-09-09T04:03:30;12.70;99.90
7016;DHT22;3548;48.402;9.990;2022-09-09T04:05:58;12.60;99.90
7016;DHT22;3548;48.402;9.990;2022-09-09T04:08:25;12.60;99.90
7016;DHT22;3548;48.402;9.990;2022-09-09T04:10:51;12.50;99.90
7016;DHT22;3548;48.402;9.990;2022-09-09T04:13:18;12.50;99.90
7016;DHT22;3548;48.402;9.990;2022-09-09T04:15:51;12.50;99.90
7016;DHT22;3548;48.402;9.990;2022-09-09T04:18:16;12.60;99.90
7016;DHT22;3548;48.402;9.990;2022-09-09T04:20:42;12.60;99.90
7016;DHT22;3548;48.402;9.990;2022-09-09T04:23:08;12.60;99.90
7016;DHT22;3548;48.402;9.990;2022-09-09T04:25:34;12.70;99.90
7016;DHT22;3548;48.402;9.990;2022-09-09T04:28:00;12.70;99.90
7016;DHT22;3548;48.402;9.990;2022-09-09T04:30:25;12.70;99.90
7016;DHT22;3548;48.402;9.990;2022-09-09T04:32:52;12.80;99.90
7016;DHT22;3548;48.402;9.990;2022-09-09T04:35:18;12.70;99.90
7016;DHT22;3548;48.402;9.990;2022-09-09T04:37:45;12.70;99.90
7016;DHT22;3548;48.402;9.990;2022-09-09T04:40:11;12.80;99.90
7016;DHT22;3548;48.402;9.990;2022-09-09T04:42:36;12.70;99.90
7016;DHT22;3548;48.402;9.990;2022-09-09T04:45:02;12.80;99.90
7016;DHT22;3548;48.402;9.990;2022-09-09T04:47:28;12.80;99.90
7016;DHT22;3548;48.402;9.990;2022-09-09T04:49:53;12.80;99.90
7016;DHT22;3548;48.402;9.990;2022-09-09T04:52:20;12.90;99.90
7016;DHT22;3548;48.402;9.990;2022-09-09T04:54:46;12.90;99.90
7016;DHT22;3548;48.402;9.990;2022-09-09T04:57:12;12.90;99.90
7016;DHT22;3548;48.402;9.990;2022-09-09T04:59:37;13.00;99.90
7016;DHT22;3548;48.402;9.990;2022-09-09T05:02:04;13.00;99.90
7016;DHT22;3548;48.402;9.990;2022-09-09T05:04:30;13.00;99.90
7016;DHT22;3548;48.402;9.990;2022-09-09T05:06:56;13.00;99.90
7016;DHT22;3548;48.402;9.990;2022-09-09T05:09:21;13.00;99.90
7016;DHT22;3548;48.402;9.990;2022-09-09T05:11:47;13.00;99.90
7016;DHT22;3548;48.402;9.990;2022-09-09T05:14:12;13.00;99.90
7016;DHT22;3548;48.402;9.990;2022-09-09T05:16:40;13.10;99.90
7016;DHT22;3548;48.402;9.990;2022-09-09T05:19:05;13.10;99.90
7016;DHT22;3548;48.402;9.990;2022-09-09T05:21:33;13.20;99.90
7016;DHT22;3548;48.402;9.990;2022-09-09T05:23:59;13.20;99.90
7016;DHT22;3548;48.402;9.990;2022-09-09T05:26:28;13.20;99.90
7016;DHT22;3548;48.402;9.990;2022-09-09T05:28:54;13.20;99.90
7016;DHT22;3548;48.402;9.990;2022-09-09T05:31:20;13.20;99.90
7016;DHT22;3548;48.402;9.990;2022-09-09T05:33:47;13.20;99.90
7016;DHT22;3548;48.402;9.990;2022-09-09T05:36:17;13.30;99.90
7016;DHT22;3548;48.402;9.990;2022-09-09T05:38:43;13.30;99.90
7016;DHT22;3548;48.402;9.990;2022-09-09T05:41:10;13.30;99.90
7016;DHT22;3548;48.402;9.990;2022-09-09T05:43:37;13.30;99.90
7016;DHT22;3548;48.402;9.990;2022-09-09T05:46:08;13.40;99.90
7016;DHT22;3548;48.402;9.990;2022-09-09T05:48:36;13.40;99.90
7016;DHT22;3548;48.402;9.990;2022-09-09T05:51:03;13.40;99.90
7016;DHT22;3548;48.402;9.990;2022-09-09T05:53:29;13.40;99.90
7016;DHT22;3548;48.402;9.990;2022-09-09T05:58:58;13.40;99.90
7016;DHT22;3548;48.402;9.990;2022-09-09T06:01:31;13.30;99.90
7016;DHT22;3548;48.402;9.990;2022-09-09T06:03:57;13.30;99.90
7016;DHT22;3548;48.402;9.990;2022-09-09T06:06:25;13.40;99.90
7016;DHT22;3548;48.402;9.990;2022-09-09T06:08:55;13.50;99.90
7016;DHT22;3548;48.402;9.990;2022-09-09T06:11:24;13.60;99.90
7016;DHT22;3548;48.402;9.990;2022-09-09T06:13:51;13.70;99.90
7016;DHT22;3548;48.402;9.990;2022-09-09T06:16:21;13.80;99.90
7016;DHT22;3548;48.402;9.990;2022-09-09T06:18:49;13.90;99.90
7016;DHT22;3548;48.402;9.990;2022-09-09T06:21:18;14.00;99.90
7016;DHT22;3548;48.402;9.990;2022-09-09T06:23:45;14.10;99.90
7016;DHT22;3548;48.402;9.990;2022-09-09T06:26:15;14.10;99.90
7016;DHT22;3548;48.402;9.990;2022-09-09T06:28:42;14.10;99.90
7016;DHT22;3548;48.402;9.990;2022-09-09T06:31:10;14.10;99.90
7016;DHT22;3548;48.402;9.990;2022-09-09T06:33:38;14.10;99.90
7016;DHT22;3548;48.402;9.990;2022-09-09T06:36:11;14.10;99.90
7016;DHT22;3548;48.402;9.990;2022-09-09T06:38:37;14.10;99.90
7016;DHT22;3548;48.402;9.990;2022-09-09T06:41:03;14.20;99.90
7016;DHT22;3548;48.402;9.990;2022-09-09T06:43:29;14.30;99.90
7016;DHT22;3548;48.402;9.990;2022-09-09T06:46:11;14.50;99.90
7016;DHT22;3548;48.402;9.990;2022-09-09T06:48:39;14.60;99.90
7016;DHT22;3548;48.402;9.990;2022-09-09T06:51:13;14.60;99.90
7016;DHT22;3548;48.402;9.990;2022-09-09T06:53:40;14.80;99.90
7016;DHT22;3548;48.402;9.990;2022-09-09T06:58:51;15.00;99.90
7016;DHT22;3548;48.402;9.990;2022-09-09T07:01:19;15.10;99.90
7016;DHT22;3548;48.402;9.990;2022-09-09T07:03:48;15.30;99.90
7016;DHT22;3548;48.402;9.990;2022-09-09T07:06:24;15.50;99.90
7016;DHT22;3548;48.402;9.990;2022-09-09T07:08:52;15.60;99.90
7016;DHT22;3548;48.402;9.990;2022-09-09T07:11:19;15.90;99.90
7016;DHT22;3548;48.402;9.990;2022-09-09T07:13:45;16.10;99.90
7016;DHT22;3548;48.402;9.990;2022-09-09T07:16:13;16.30;99.90
7016;DHT22;3548;48.402;9.990;2022-09-09T07:18:40;16.40;99.90
7016;DHT22;3548;48.402;9.990;2022-09-09T07:21:06;16.60;99.90
7016;DHT22;3548;48.402;9.990;2022-09-09T07:23:32;16.80;99.90
7016;DHT22;3548;48.402;9.990;2022-09-09T07:25:58;16.90;99.90
7016;DHT22;3548;48.402;9.990;2022-09-09T07:28:25;17.00;99.90
7016;DHT22;3548;48.402;9.990;2022-09-09T07:30:55;17.10;99.90
7016;DHT22;3548;48.402;9.990;2022-09-09T07:33:21;17.10;99.90
7016;DHT22;3548;48.402;9.990;2022-09-09T07:35:47;17.10;99.90
7016;DHT22;3548;48.402;9.990;2022-09-09T07:38:12;17.10;99.90
7016;DHT22;3548;48.402;9.990;2022-09-09T07:40:38;17.00;99.90
7016;DHT22;3548;48.402;9.990;2022-09-09T07:43:05;16.90;99.90
7016;DHT22;3548;48.402;9.990;2022-09-09T07:45:30;17.10;99.90
7016;DHT22;3548;48.402;9.990;2022-09-09T07:47:56;17.20;99.90
7016;DHT22;3548;48.402;9.990;2022-09-09T07:50:22;18.20;99.90
7016;DHT22;3548;48.402;9.990;2022-09-09T07:52:49;17.50;99.90
7016;DHT22;3548;48.402;9.990;2022-09-09T07:55:14;17.50;99.90
7016;DHT22;3548;48.402;9.990;2022-09-09T07:57:40;17.50;99.90
7016;DHT22;3548;48.402;9.990;2022-09-09T08:00:06;17.60;99.90
7016;DHT22;3548;48.402;9.990;2022-09-09T08:02:32;17.70;99.90
7016;DHT22;3548;48.402;9.990;2022-09-09T08:04:57;17.80;99.90
7016;DHT22;3548;48.402;9.990;2022-09-09T08:07:23;17.80;99.90
7016;DHT22;3548;48.402;9.990;2022-09-09T08:09:49;17.80;99.90
7016;DHT22;3548;48.402;9.990;2022-09-09T08:12:15;17.60;99.90
7016;DHT22;3548;48.402;9.990;2022-09-09T08:14:41;17.50;99.90
7016;DHT22;3548;48.402;9.990;2022-09-09T08:17:07;17.50;99.90
7016;DHT22;3548;48.402;9.990;2022-09-09T08:19:32;17.70;99.90
7016;DHT22;3548;48.402;9.990;2022-09-09T08:22:01;18.00;99.90
7016;DHT22;3548;48.402;9.990;2022-09-09T08:24:28;18.00;99.90
7016;DHT22;3548;48.402;9.990;2022-09-09T08:26:53;18.00;99.90
7016;DHT22;3548;48.402;9.990;2022-09-09T08:29:19;18.10;99.90
7016;DHT22;3548;48.402;9.990;2022-09-09T08:31:54;18.10;99.90
7016;DHT22;3548;48.402;9.990;2022-09-09T08:34:21;18.30;99.90
7016;DHT22;3548;48.402;9.990;2022-09-09T08:36:48;18.50;99.90
7016;DHT22;3548;48.402;9.990;2022-09-09T08:39:16;18.50;99.90
7016;DHT22;3548;48.402;9.990;2022-09-09T08:52:29;19.50;99.90
7016;DHT22;3548;48.402;9.990;2022-09-09T08:55:02;19.60;99.90
7016;DHT22;3548;48.402;9.990;2022-09-09T08:57:31;19.50;99.90
7016;DHT22;3548;48.402;9.990;2022-09-09T08:59:57;19.40;99.90
7016;DHT22;3548;48.402;9.990;2022-09-09T09:02:32;19.40;99.90
7016;DHT22;3548;48.402;9.990;2022-09-09T09:10:40;19.70;99.90
7016;DHT22;3548;48.402;9.990;2022-09-09T09:16:00;19.90;99.90
7016;DHT22;3548;48.402;9.990;2022-09-09T09:18:27;20.00;99.90
7016;DHT22;3548;48.402;9.990;2022-09-09T09:21:10;20.10;99.90
7016;DHT22;3548;48.402;9.990;2022-09-09T09:23:56;20.00;99.90
7016;DHT22;3548;48.402;9.990;2022-09-09T09:26:25;20.00;99.90
7016;DHT22;3548;48.402;9.990;2022-09-09T09:28:55;20.10;99.90
7016;DHT22;3548;48.402;9.990;2022-09-09T09:31:21;20.10;99.90
7016;DHT22;3548;48.402;9.990;2022-09-09T09:33:53;19.90;99.90
7016;DHT22;3548;48.402;9.990;2022-09-09T09:36:25;19.90;99.90
7016;DHT22;3548;48.402;9.990;2022-09-09T09:39:00;20.00;99.90
7016;DHT22;3548;48.402;9.990;2022-09-09T09:41:38;20.20;99.90
7016;DHT22;3548;48.402;9.990;2022-09-09T09:44:05;20.40;99.90
7016;DHT22;3548;48.402;9.990;2022-09-09T09:46:31;20.60;99.90
7016;DHT22;3548;48.402;9.990;2022-09-09T09:49:04;20.80;99.90
7016;DHT22;3548;48.402;9.990;2022-09-09T09:51:34;20.80;99.90
7016;DHT22;3548;48.402;9.990;2022-09-09T09:56:41;21.10;99.90
7016;DHT22;3548;48.402;9.990;2022-09-09T10:01:52;21.40;99.90
7016;DHT22;3548;48.402;9.990;2022-09-09T10:04:23;21.40;99.90
7016;DHT22;3548;48.402;9.990;2022-09-09T10:06:49;21.40;99.90
7016;DHT22;3548;48.402;9.990;2022-09-09T10:09:25;21.30;99.90
7016;DHT22;3548;48.402;9.990;2022-09-09T10:32:36;21.40;99.90
7016;DHT22;3548;48.402;9.990;2022-09-09T10:43:42;21.40;98.80
7016;DHT22;3548;48.402;9.990;2022-09-09T10:48:56;21.00;99.30
7016;DHT22;3548;48.402;9.990;2022-09-09T10:51:40;21.00;99.90
7016;DHT22;3548;48.402;9.990;2022-09-09T10:54:23;21.00;99.90
7016;DHT22;3548;48.402;9.990;2022-09-09T10:56:59;21.10;99.90
7016;DHT22;3548;48.402;9.990;2022-09-09T10:59:33;21.40;99.60
7016;DHT22;3548;48.402;9.990;2022-09-09T11:02:15;21.70;99.30
7016;DHT22;3548;48.402;9.990;2022-09-09T11:04:55;22.00;98.50
7016;DHT22;3548;48.402;9.990;2022-09-09T11:07:41;22.20;97.80
7016;DHT22;3548;48.402;9.990;2022-09-09T11:13:07;22.60;95.90
7016;DHT22;3548;48.402;9.990;2022-09-09T11:15:44;22.80;95.70
7016;DHT22;3548;48.402;9.990;2022-09-09T11:18:14;22.80;95.40
7016;DHT22;3548;48.402;9.990;2022-09-09T11:20:44;22.80;95.60
7016;DHT22;3548;48.402;9.990;2022-09-09T11:23:24;22.90;95.20
7016;DHT22;3548;48.402;9.990;2022-09-09T11:25:55;22.80;94.60
7016;DHT22;3548;48.402;9.990;2022-09-09T11:28:31;22.70;94.90
7016;DHT22;3548;48.402;9.990;2022-09-09T11:36:50;22.70;93.80
7016;DHT22;3548;48.402;9.990;2022-09-09T11:44:40;22.40;93.10
7016;DHT22;3548;48.402;9.990;2022-09-09T11:47:36;22.40;93.10
7016;DHT22;3548;48.402;9.990;2022-09-09T11:52:45;21.90;93.00
7016;DHT22;3548;48.402;9.990;2022-09-09T11:55:25;21.70;93.70
7016;DHT22;3548;48.402;9.990;2022-09-09T11:57:59;21.40;93.70
7016;DHT22;3548;48.402;9.990;2022-09-09T12:00:46;21.30;93.90
7016;DHT22;3548;48.402;9.990;2022-09-09T12:03:45;21.60;93.90
7016;DHT22;3548;48.402;9.990;2022-09-09T12:06:30;21.80;93.30
7016;DHT22;3548;48.402;9.990;2022-09-09T12:09:15;22.10;93.00
7016;DHT22;3548;48.402;9.990;2022-09-09T12:11:42;22.30;92.50
7016;DHT22;3548;48.402;9.990;2022-09-09T12:14:35;22.50;92.80
7016;DHT22;3548;48.402;9.990;2022-09-09T12:17:21;22.50;92.50
7016;DHT22;3548;48.402;9.990;2022-09-09T12:19:48;22.70;92.50
7016;DHT22;3548;48.402;9.990;2022-09-09T12:22:50;22.80;91.30
7016;DHT22;3548;48.402;9.990;2022-09-09T12:28:22;22.90;90.70
7016;DHT22;3548;48.402;9.990;2022-09-09T12:30:52;22.90;90.60
7016;DHT22;3548;48.402;9.990;2022-09-09T12:33:20;22.80;90.70
7016;DHT22;3548;48.402;9.990;2022-09-09T12:35:53;22.70;90.90
7016;DHT22;3548;48.402;9.990;2022-09-09T12:38:35;22.90;91.20
7016;DHT22;3548;48.402;9.990;2022-09-09T12:41:01;23.10;90.80
7016;DHT22;3548;48.402;9.990;2022-09-09T12:43:28;23.30;90.80
7016;DHT22;3548;48.402;9.990;2022-09-09T12:46:00;23.50;90.70
7016;DHT22;3548;48.402;9.990;2022-09-09T12:48:52;23.60;90.40
7016;DHT22;3548;48.402;9.990;2022-09-09T12:51:24;23.70;90.30
7016;DHT22;3548;48.402;9.990;2022-09-09T12:53:52;23.70;88.40
7016;DHT22;3548;48.402;9.990;2022-09-09T12:56:20;23.60;88.00
7016;DHT22;3548;48.402;9.990;2022-09-09T12:58:49;23.40;88.20
7016;DHT22;3548;48.402;9.990;2022-09-09T13:01:25;23.10;88.70
7016;DHT22;3548;48.402;9.990;2022-09-09T13:03:51;22.90;90.10
7016;DHT22;3548;48.402;9.990;2022-09-09T13:06:27;22.80;90.00
7016;DHT22;3548;48.402;9.990;2022-09-09T13:08:55;22.70;90.30
7016;DHT22;3548;48.402;9.990;2022-09-09T13:11:24;22.50;90.30
7016;DHT22;3548;48.402;9.990;2022-09-09T13:13:56;22.40;90.30
7016;DHT22;3548;48.402;9.990;2022-09-09T13:16:26;22.40;90.40
7016;DHT22;3548;48.402;9.990;2022-09-09T13:18:56;22.30;90.50
7016;DHT22;3548;48.402;9.990;2022-09-09T13:21:34;22.40;90.80
7016;DHT22;3548;48.402;9.990;2022-09-09T13:24:00;22.40;90.70
7016;DHT22;3548;48.402;9.990;2022-09-09T13:26:29;22.40;90.40
7016;DHT22;3548;48.402;9.990;2022-09-09T13:29:07;22.50;90.70
7016;DHT22;3548;48.402;9.990;2022-09-09T13:31:36;22.60;90.50
7016;DHT22;3548;48.402;9.990;2022-09-09T13:34:30;22.60;90.40
7016;DHT22;3548;48.402;9.990;2022-09-09T13:36:59;22.50;90.20
7016;DHT22;3548;48.402;9.990;2022-09-09T13:39:27;22.60;89.40
7016;DHT22;3548;48.402;9.990;2022-09-09T13:41:53;22.60;88.60
7016;DHT22;3548;48.402;9.990;2022-09-09T13:44:31;22.80;88.80
7016;DHT22;3548;48.402;9.990;2022-09-09T13:47:16;22.90;87.60
7016;DHT22;3548;48.402;9.990;2022-09-09T13:49:43;22.90;87.40
7016;DHT22;3548;48.402;9.990;2022-09-09T13:52:14;22.80;85.60
7016;DHT22;3548;48.402;9.990;2022-09-09T13:54:41;22.80;85.60
7016;DHT22;3548;48.402;9.990;2022-09-09T13:57:15;22.80;84.40
7016;DHT22;3548;48.402;9.990;2022-09-09T13:59:42;22.80;83.50
7016;DHT22;3548;48.402;9.990;2022-09-09T14:02:08;22.90;83.20
7016;DHT22;3548;48.402;9.990;2022-09-09T14:04:33;23.00;82.40
7016;DHT22;3548;48.402;9.990;2022-09-09T14:07:00;22.80;82.40
7016;DHT22;3548;48.402;9.990;2022-09-09T14:09:26;22.80;82.20
7016;DHT22;3548;48.402;9.990;2022-09-09T14:11:52;22.80;82.70
7016;DHT22;3548;48.402;9.990;2022-09-09T14:14:17;23.00;82.20
7016;DHT22;3548;48.402;9.990;2022-09-09T14:16:43;23.10;83.20
7016;DHT22;3548;48.402;9.990;2022-09-09T14:19:09;23.10;82.60
7016;DHT22;3548;48.402;9.990;2022-09-09T14:21:34;23.10;82.20
7016;DHT22;3548;48.402;9.990;2022-09-09T14:24:00;22.90;82.80
7016;DHT22;3548;48.402;9.990;2022-09-09T14:26:25;23.00;83.40
7016;DHT22;3548;48.402;9.990;2022-09-09T14:28:51;23.00;82.80
7016;DHT22;3548;48.402;9.990;2022-09-09T14:31:17;23.00;83.90
7016;DHT22;3548;48.402;9.990;2022-09-09T14:33:43;22.90;84.90
7016;DHT22;3548;48.402;9.990;2022-09-09T14:36:09;22.80;84.50
7016;DHT22;3548;48.402;9.990;2022-09-09T14:38:36;22.60;85.20
7016;DHT22;3548;48.402;9.990;2022-09-09T14:41:06;22.40;85.40
7016;DHT22;3548;48.402;9.990;2022-09-09T14:43:32;22.10;83.70
7016;DHT22;3548;48.402;9.990;2022-09-09T14:46:15;22.00;83.90
7016;DHT22;3548;48.402;9.990;2022-09-09T14:48:41;21.90;84.60
7016;DHT22;3548;48.402;9.990;2022-09-09T14:53:40;22.50;84.00
7016;DHT22;3548;48.402;9.990;2022-09-09T14:56:10;22.70;83.80
7016;DHT22;3548;48.402;9.990;2022-09-09T14:58:37;23.00;82.20
7016;DHT22;3548;48.402;9.990;2022-09-09T15:01:11;23.10;81.30
7016;DHT22;3548;48.402;9.990;2022-09-09T15:03:38;23.00;80.40
7016;DHT22;3548;48.402;9.990;2022-09-09T15:06:09;22.80;80.80
7016;DHT22;3548;48.402;9.990;2022-09-09T15:08:39;22.80;80.70
7016;DHT22;3548;48.402;9.990;2022-09-09T15:11:06;22.90;80.90
7016;DHT22;3548;48.402;9.990;2022-09-09T15:13:36;23.10;80.80
7016;DHT22;3548;48.402;9.990;2022-09-09T15:16:19;23.00;80.80
7016;DHT22;3548;48.402;9.990;2022-09-09T15:18:46;23.00;81.40
7016;DHT22;3548;48.402;9.990;2022-09-09T15:21:14;23.00;79.80
7016;DHT22;3548;48.402;9.990;2022-09-09T15:23:40;23.10;77.70
7016;DHT22;3548;48.402;9.990;2022-09-09T15:26:05;23.10;78.30
7016;DHT22;3548;48.402;9.990;2022-09-09T15:28:32;23.10;79.30
7016;DHT22;3548;48.402;9.990;2022-09-09T15:31:27;23.10;78.60
7016;DHT22;3548;48.402;9.990;2022-09-09T15:34:03;23.00;78.50
7016;DHT22;3548;48.402;9.990;2022-09-09T15:36:38;22.90;78.60
7016;DHT22;3548;48.402;9.990;2022-09-09T15:39:06;22.80;78.00
7016;DHT22;3548;48.402;9.990;2022-09-09T15:41:32;22.60;78.50
7016;DHT22;3548;48.402;9.990;2022-09-09T15:43:58;22.60;78.80
7016;DHT22;3548;48.402;9.990;2022-09-09T15:46:33;22.60;79.00
7016;DHT22;3548;48.402;9.990;2022-09-09T15:49:13;22.60;78.50
7016;DHT22;3548;48.402;9.990;2022-09-09T15:51:42;22.50;78.40
7016;DHT22;3548;48.402;9.990;2022-09-09T15:54:10;22.40;77.70
7016;DHT22;3548;48.402;9.990;2022-09-09T15:56:36;22.30;77.90
7016;DHT22;3548;48.402;9.990;2022-09-09T15:59:02;22.20;77.60
7016;DHT22;3548;48.402;9.990;2022-09-09T16:01:29;22.20;77.60
7016;DHT22;3548;48.402;9.990;2022-09-09T16:03:56;22.20;77.70
7016;DHT22;3548;48.402;9.990;2022-09-09T16:06:23;22.10;77.70
7016;DHT22;3548;48.402;9.990;2022-09-09T16:08:51;22.20;77.70
7016;DHT22;3548;48.402;9.990;2022-09-09T16:11:30;22.10;77.70
7016;DHT22;3548;48.402;9.990;2022-09-09T16:13:56;22.00;77.70
7016;DHT22;3548;48.402;9.990;2022-09-09T16:16:23;21.90;78.20
7016;DHT22;3548;48.402;9.990;2022-09-09T16:19:00;21.80;78.50
7016;DHT22;3548;48.402;9.990;2022-09-09T16:21:30;21.70;78.80
7016;DHT22;3548;48.402;9.990;2022-09-09T16:23:57;21.50;79.30
7016;DHT22;3548;48.402;9.990;2022-09-09T16:26:25;21.40;79.20
7016;DHT22;3548;48.402;9.990;2022-09-09T16:28:51;21.40;79.30
7016;DHT22;3548;48.402;9.990;2022-09-09T16:31:19;21.40;78.20
7016;DHT22;3548;48.402;9.990;2022-09-09T16:33:45;21.40;78.70
7016;DHT22;3548;48.402;9.990;2022-09-09T16:36:24;21.30;79.50
7016;DHT22;3548;48.402;9.990;2022-09-09T16:38:54;21.20;79.60
7016;DHT22;3548;48.402;9.990;2022-09-09T16:41:21;21.30;80.00
7016;DHT22;3548;48.402;9.990;2022-09-09T16:43:47;21.20;79.00
7016;DHT22;3548;48.402;9.990;2022-09-09T16:46:17;21.10;79.20
7016;DHT22;3548;48.402;9.990;2022-09-09T16:48:44;21.00;79.40
7016;DHT22;3548;48.402;9.990;2022-09-09T16:51:22;21.00;80.10
7016;DHT22;3548;48.402;9.990;2022-09-09T16:53:51;20.90;81.00
7016;DHT22;3548;48.402;9.990;2022-09-09T16:56:20;20.80;81.20
7016;DHT22;3548;48.402;9.990;2022-09-09T16:58:50;20.70;80.70
7016;DHT22;3548;48.402;9.990;2022-09-09T17:01:16;20.60;81.00
7016;DHT22;3548;48.402;9.990;2022-09-09T17:03:42;20.50;81.40
7016;DHT22;3548;48.402;9.990;2022-09-09T17:06:16;20.50;82.20
7016;DHT22;3548;48.402;9.990;2022-09-09T17:08:42;20.40;81.70
7016;DHT22;3548;48.402;9.990;2022-09-09T17:11:16;20.50;82.20
7016;DHT22;3548;48.402;9.990;2022-09-09T17:13:42;20.50;82.10
7016;DHT22;3548;48.402;9.990;2022-09-09T17:16:09;20.50;82.10
7016;DHT22;3548;48.402;9.990;2022-09-09T17:18:35;20.50;83.30
7016;DHT22;3548;48.402;9.990;2022-09-09T17:21:09;20.40;84.80
7016;DHT22;3548;48.402;9.990;2022-09-09T17:23:36;20.20;86.80
7016;DHT22;3548;48.402;9.990;2022-09-09T17:26:05;20.00;88.10
7016;DHT22;3548;48.402;9.990;2022-09-09T17:28:31;19.80;89.30
7016;DHT22;3548;48.402;9.990;2022-09-09T17:31:00;19.60;90.30
7016;DHT22;3548;48.402;9.990;2022-09-09T17:33:28;19.40;90.80
7016;DHT22;3548;48.402;9.990;2022-09-09T17:35:59;19.30;90.80
7016;DHT22;3548;48.402;9.990;2022-09-09T17:38:25;19.10;91.50
7016;DHT22;3548;48.402;9.990;2022-09-09T17:41:13;19.00;91.20
7016;DHT22;3548;48.402;9.990;2022-09-09T17:43:39;18.90;91.40
7016;DHT22;3548;48.402;9.990;2022-09-09T17:46:28;18.80;91.20
7016;DHT22;3548;48.402;9.990;2022-09-09T17:48:58;18.80;90.90
7016;DHT22;3548;48.402;9.990;2022-09-09T17:51:25;18.70;90.50
7016;DHT22;3548;48.402;9.990;2022-09-09T17:53:55;18.60;89.90
7016;DHT22;3548;48.402;9.990;2022-09-09T17:56:22;18.50;89.70
7016;DHT22;3548;48.402;9.990;2022-09-09T17:58:49;18.50;89.00
7016;DHT22;3548;48.402;9.990;2022-09-09T18:01:23;18.50;88.30
7016;DHT22;3548;48.402;9.990;2022-09-09T18:03:49;18.40;87.80
7016;DHT22;3548;48.402;9.990;2022-09-09T18:06:18;18.40;87.90
7016;DHT22;3548;48.402;9.990;2022-09-09T18:08:52;18.40;87.70
7016;DHT22;3548;48.402;9.990;2022-09-09T18:11:20;18.30;87.70
7016;DHT22;3548;48.402;9.990;2022-09-09T18:13:54;18.20;88.10
7016;DHT22;3548;48.402;9.990;2022-09-09T18:16:20;18.20;88.50
7016;DHT22;3548;48.402;9.990;2022-09-09T18:18:47;18.20;88.10
7016;DHT22;3548;48.402;9.990;2022-09-09T18:21:15;18.10;88.60